createdAt,value
2022-11-19T00:00:51.781Z,4.55
2022-11-19T00:02:56.898Z,5.38
2022-11-19T00:05:03.567Z,6.35
2022-11-19T00:07:08.359Z,5.15
2022-11-19T00:09:14.594Z,5.45
2022-11-19T00:11:44.788Z,5.68
2022-11-19T00:13:50.504Z,6.03
2022-11-19T00:15:55.661Z,6.55
2022-11-19T00:18:00.839Z,6.93
2022-11-19T00:22:10.142Z,6.57
2022-11-19T00:24:14.880Z,6.65
2022-11-19T00:26:22.266Z,5.70
2022-11-19T00:28:27.144Z,7.47
2022-11-19T00:30:47.479Z,6.22
2022-11-19T00:32:53.090Z,6.55
2022-11-19T00:34:57.876Z,7.88
2022-11-19T00:37:02.634Z,6.72
2022-11-19T00:39:07.559Z,6.60
2022-11-19T00:41:12.817Z,6.22
2022-11-19T00:45:37.178Z,7.82
2022-11-19T00:47:42.026Z,6.50
2022-11-19T00:49:46.770Z,5.93
2022-11-19T00:51:51.597Z,6.68
2022-11-19T00:53:56.846Z,6.47
2022-11-19T00:58:07.627Z,7.40
2022-11-19T01:00:16.834Z,7.70
2022-11-19T01:02:21.584Z,6.15
2022-11-19T01:04:26.437Z,7.32
2022-11-19T01:06:31.263Z,6.88
2022-11-19T01:08:36.057Z,7.03
2022-11-19T01:10:40.859Z,9.20
2022-11-19T01:13:00.266Z,8.13
2022-11-19T01:15:05.003Z,8.75
2022-11-19T01:17:12.915Z,7.65
2022-11-19T01:19:18.289Z,8.00
2022-11-19T01:21:25.330Z,7.95
2022-11-19T01:23:30.143Z,8.48
2022-11-19T01:25:35.077Z,9.75
2022-11-19T01:27:39.844Z,9.43
2022-11-19T01:29:44.643Z,10.40
2022-11-19T01:31:49.548Z,10.30
2022-11-19T01:33:57.352Z,12.32
2022-11-19T01:36:03.598Z,12.25
2022-11-19T01:38:09.005Z,13.07
2022-11-19T01:42:43.599Z,14.25
2022-11-19T01:45:03.918Z,15.38
2022-11-19T01:47:08.685Z,15.80
2022-11-19T01:49:20.014Z,15.48
2022-11-19T01:51:28.337Z,12.75
2022-11-19T01:53:36.505Z,14.77
2022-11-19T01:55:44.920Z,14.27
2022-11-19T01:57:56.908Z,16.48
2022-11-19T02:00:01.756Z,15.52
2022-11-19T02:02:09.164Z,15.38
2022-11-19T02:04:19.447Z,16.38
2022-11-19T02:06:24.610Z,13.57
2022-11-19T02:11:01.434Z,14.65
2022-11-19T02:13:16.403Z,15.98
2022-11-19T02:15:35.181Z,15.80
2022-11-19T02:18:10.028Z,15.20
2022-11-19T02:20:44.661Z,15.85
2022-11-19T02:23:14.056Z,16.98
2022-11-19T02:25:36.755Z,14.48
2022-11-19T02:28:17.414Z,16.05
2022-11-19T02:30:25.040Z,15.52
2022-11-19T02:32:35.807Z,16.92
2022-11-19T02:34:44.563Z,17.90
2022-11-19T02:36:57.614Z,17.17
2022-11-19T02:39:09.030Z,15.50
2022-11-19T02:41:37.598Z,15.48
2022-11-19T02:43:45.270Z,17.50
2022-11-19T02:45:56.510Z,18.33
2022-11-19T02:48:04.923Z,15.65
2022-11-19T02:50:14.613Z,17.55
2022-11-19T02:52:20.958Z,18.40
2022-11-19T02:54:25.703Z,18.40
2022-11-19T02:56:49.895Z,18.75
2022-11-19T02:59:09.204Z,16.30
2022-11-19T03:01:30.007Z,18.67
2022-11-19T03:03:48.297Z,17.40
2022-11-19T03:05:57.331Z,18.33
2022-11-19T03:08:02.710Z,18.67
2022-11-19T03:10:11.582Z,18.17
2022-11-19T03:12:25.602Z,19.30
2022-11-19T03:14:54.262Z,20.40
2022-11-19T03:17:04.066Z,19.15
2022-11-19T03:19:14.640Z,17.58
2022-11-19T03:21:26.275Z,17.10
2022-11-19T03:23:36.892Z,21.67
2022-11-19T03:25:46.659Z,19.70
2022-11-19T03:27:55.422Z,15.85
2022-11-19T03:30:04.237Z,16.65
2022-11-19T03:32:16.984Z,18.10
2022-11-19T03:34:25.246Z,18.10
2022-11-19T03:36:35.185Z,22.42
2022-11-19T03:38:44.790Z,17.20
2022-11-19T03:40:51.776Z,17.60
2022-11-19T03:42:59.031Z,16.13
2022-11-19T03:45:06.994Z,17.50
2022-11-19T03:47:18.354Z,17.08
2022-11-19T03:49:31.677Z,16.85
2022-11-19T03:51:43.854Z,16.38
2022-11-19T03:53:48.825Z,18.02
2022-11-19T03:55:58.920Z,16.50
2022-11-19T03:58:06.733Z,16.98
2022-11-19T04:00:13.163Z,16.50
2022-11-19T04:02:21.828Z,17.02
2022-11-19T04:04:38.893Z,17.02
2022-11-19T04:06:43.675Z,17.73
2022-11-19T04:08:48.420Z,17.45
2022-11-19T04:10:53.415Z,17.40
2022-11-19T04:12:58.183Z,15.75
2022-11-19T04:15:03.092Z,12.13
2022-11-19T04:17:07.974Z,14.20
2022-11-19T04:19:15.564Z,12.10
2022-11-19T04:21:20.323Z,12.43
2022-11-19T04:23:25.150Z,15.73
2022-11-19T04:25:29.988Z,12.65
2022-11-19T04:27:34.812Z,12.73
2022-11-19T04:29:39.720Z,12.52
2022-11-19T04:31:44.543Z,12.18
2022-11-19T04:33:49.330Z,13.18
2022-11-19T04:35:56.832Z,11.60
2022-11-19T04:38:01.585Z,12.27
2022-11-19T04:40:10.979Z,11.73
2022-11-19T04:42:15.938Z,10.85
2022-11-19T04:44:20.699Z,9.07
2022-11-19T04:46:25.486Z,9.57
2022-11-19T04:48:30.487Z,10.48
2022-11-19T04:50:35.255Z,7.90
2022-11-19T04:52:42.759Z,8.75
2022-11-19T04:54:47.667Z,8.15
2022-11-19T04:56:52.494Z,7.30
2022-11-19T04:58:57.358Z,8.95
2022-11-19T05:01:02.223Z,10.02
2022-11-19T05:03:09.374Z,8.75
2022-11-19T05:05:14.225Z,7.10
2022-11-19T05:07:19.228Z,9.23
2022-11-19T05:11:31.260Z,8.57
2022-11-19T05:13:36.208Z,10.02
2022-11-19T05:15:41.096Z,8.10
2022-11-19T05:17:48.088Z,9.65
2022-11-19T05:19:52.996Z,8.43
2022-11-19T05:21:57.838Z,9.75
2022-11-19T05:24:02.607Z,9.65
2022-11-19T05:26:10.137Z,8.73
2022-11-19T05:28:14.932Z,9.65
2022-11-19T05:30:19.849Z,9.35
2022-11-19T05:32:24.693Z,10.13
2022-11-19T05:34:29.537Z,10.95
2022-11-19T05:36:34.320Z,9.90
2022-11-19T05:38:39.201Z,9.40
2022-11-19T05:40:44.021Z,9.30
2022-11-19T05:42:51.427Z,9.48
2022-11-19T05:44:56.209Z,9.68
2022-11-19T05:47:01.046Z,10.00
2022-11-19T05:49:06.112Z,9.13
2022-11-19T05:51:10.990Z,10.32
2022-11-19T05:53:15.761Z,10.65
2022-11-19T05:55:20.888Z,11.05
2022-11-19T05:59:32.963Z,10.88
2022-11-19T06:01:37.745Z,10.90
2022-11-19T06:03:42.936Z,12.77
2022-11-19T06:07:52.359Z,11.93
2022-11-19T06:09:57.136Z,12.38
2022-11-19T06:12:01.947Z,12.23
2022-11-19T06:14:07.042Z,15.35
2022-11-19T06:16:14.401Z,14.07
2022-11-19T06:18:19.271Z,13.52
2022-11-19T06:20:24.211Z,13.95
2022-11-19T06:22:29.000Z,14.18
2022-11-19T06:24:33.933Z,13.95
2022-11-19T06:26:38.895Z,14.95
2022-11-19T06:28:43.668Z,15.95
2022-11-19T06:30:48.504Z,15.05
2022-11-19T06:32:55.887Z,15.70
2022-11-19T06:35:00.686Z,16.15
2022-11-19T06:37:05.520Z,13.85
2022-11-19T06:39:10.950Z,13.68
2022-11-19T06:41:15.769Z,14.23
2022-11-19T06:43:20.542Z,16.35
2022-11-19T06:45:25.368Z,15.70
2022-11-19T06:47:32.261Z,15.85
2022-11-19T06:49:39.742Z,15.52
2022-11-19T06:51:44.507Z,15.90
2022-11-19T06:53:49.424Z,16.08
2022-11-19T06:55:59.382Z,17.20
2022-11-19T06:58:04.986Z,16.42
2022-11-19T07:00:11.303Z,17.20
2022-11-19T07:02:21.463Z,17.33
2022-11-19T07:04:26.626Z,16.90
2022-11-19T07:06:34.010Z,17.35
2022-11-19T07:08:39.960Z,16.70
2022-11-19T07:10:44.933Z,18.35
2022-11-19T07:12:49.695Z,16.60
2022-11-19T07:14:56.577Z,19.35
2022-11-19T07:17:05.151Z,17.48
2022-11-19T07:19:11.652Z,18.38
2022-11-19T07:21:19.181Z,17.42
2022-11-19T07:23:26.572Z,19.88
2022-11-19T07:25:32.531Z,19.73
2022-11-19T07:27:37.370Z,16.90
2022-11-19T07:29:42.086Z,17.67
2022-11-19T07:31:50.387Z,18.80
2022-11-19T07:33:55.131Z,19.77
2022-11-19T07:35:59.972Z,18.95
2022-11-19T07:38:04.736Z,19.42
2022-11-19T07:40:19.284Z,18.83
2022-11-19T07:42:36.554Z,20.23
2022-11-19T07:44:47.928Z,20.33
2022-11-19T07:46:55.870Z,20.23
2022-11-19T07:49:01.601Z,20.05
2022-11-19T07:51:06.529Z,22.98
2022-11-19T07:53:11.763Z,20.60
2022-11-19T07:57:30.275Z,20.38
2022-11-19T07:59:35.435Z,27.63
2022-11-19T08:01:40.719Z,21.10
2022-11-19T08:03:48.645Z,20.85
2022-11-19T08:05:57.029Z,24.08
2022-11-19T08:08:01.781Z,23.23
2022-11-19T08:10:07.969Z,26.95
2022-11-19T08:12:15.344Z,21.30
2022-11-19T08:14:20.194Z,20.90
2022-11-19T08:16:37.599Z,23.38
2022-11-19T08:18:44.757Z,20.15
2022-11-19T08:20:50.249Z,21.98
2022-11-19T08:22:55.046Z,23.45
2022-11-19T08:24:59.833Z,18.95
2022-11-19T08:27:05.499Z,20.25
2022-11-19T08:29:16.437Z,20.77
2022-11-19T08:31:21.575Z,20.75
2022-11-19T08:33:26.409Z,22.67
2022-11-19T08:35:31.223Z,21.63
2022-11-19T08:37:35.981Z,20.73
2022-11-19T08:39:40.781Z,19.80
2022-11-19T08:42:00.547Z,21.33
2022-11-19T08:44:05.976Z,20.55
2022-11-19T08:46:16.013Z,21.13
2022-11-19T08:48:20.809Z,21.38
2022-11-19T08:50:26.114Z,20.35
2022-11-19T08:54:35.586Z,21.25
2022-11-19T08:56:40.356Z,21.73
2022-11-19T08:58:46.277Z,22.08
2022-11-19T09:00:51.754Z,21.40
2022-11-19T09:02:59.250Z,24.00
2022-11-19T09:05:04.131Z,26.35
2022-11-19T09:07:08.974Z,21.80
2022-11-19T09:09:13.860Z,25.08
2022-11-19T09:11:21.226Z,22.55
2022-11-19T09:13:26.155Z,23.70
2022-11-19T09:15:31.237Z,23.45
2022-11-19T09:17:36.034Z,24.08
2022-11-19T09:19:43.387Z,26.00
2022-11-19T09:21:48.299Z,23.02
2022-11-19T09:23:53.103Z,21.77
2022-11-19T09:25:59.360Z,25.77
2022-11-19T09:28:04.735Z,22.48
2022-11-19T09:30:11.427Z,22.55
2022-11-19T09:32:25.026Z,24.35
2022-11-19T09:34:30.266Z,22.55
2022-11-19T09:36:37.741Z,21.92
2022-11-19T09:38:43.019Z,23.42
2022-11-19T09:43:04.408Z,24.05
2022-11-19T09:45:19.692Z,22.08
2022-11-19T09:47:36.886Z,24.42
2022-11-19T09:49:49.910Z,24.00
2022-11-19T09:52:01.376Z,23.27
2022-11-19T09:54:08.686Z,23.45
2022-11-19T09:56:17.285Z,23.77
2022-11-19T09:58:27.685Z,22.35
2022-11-19T10:00:34.129Z,22.33
2022-11-19T10:02:39.050Z,22.70
2022-11-19T10:04:44.030Z,21.88
2022-11-19T10:06:58.212Z,22.17
2022-11-19T10:09:18.755Z,21.77
2022-11-19T10:11:35.819Z,22.17
2022-11-19T10:13:51.442Z,19.60
2022-11-19T10:16:08.879Z,22.75
2022-11-19T10:18:23.601Z,22.20
2022-11-19T10:20:45.656Z,24.75
2022-11-19T10:22:57.958Z,20.17
2022-11-19T10:25:15.054Z,20.33
2022-11-19T10:27:25.389Z,21.13
2022-11-19T10:29:32.139Z,21.98
2022-11-19T10:31:39.666Z,20.10
2022-11-19T10:33:52.562Z,23.40
2022-11-19T10:36:00.694Z,25.23
2022-11-19T10:38:10.352Z,25.52
2022-11-19T10:40:22.606Z,21.73
2022-11-19T10:42:31.575Z,23.63
2022-11-19T10:44:42.387Z,22.20
2022-11-19T10:46:49.474Z,21.70
2022-11-19T10:48:57.760Z,22.30
2022-11-19T10:51:02.895Z,20.88
2022-11-19T10:53:16.342Z,23.98
2022-11-19T10:55:29.049Z,23.27
2022-11-19T10:57:35.718Z,21.83
2022-11-19T10:59:42.893Z,23.23
2022-11-19T11:01:51.700Z,22.67
2022-11-19T11:04:07.366Z,22.88
2022-11-19T11:08:19.363Z,24.35
2022-11-19T11:10:42.814Z,22.85
2022-11-19T11:13:00.062Z,24.58
2022-11-19T11:15:18.445Z,19.65
2022-11-19T11:17:25.930Z,25.50
2022-11-19T11:19:31.780Z,24.23
2022-11-19T11:21:39.795Z,22.13
2022-11-19T11:23:54.368Z,21.50
2022-11-19T11:26:08.353Z,20.48
2022-11-19T11:28:16.721Z,22.35
2022-11-19T11:30:22.485Z,24.92
2022-11-19T11:32:31.769Z,26.27
2022-11-19T11:34:43.558Z,24.10
2022-11-19T11:36:49.066Z,26.40
2022-11-19T11:38:56.249Z,22.08
2022-11-19T11:43:34.632Z,25.45
2022-11-19T11:45:40.242Z,24.67
2022-11-19T11:47:47.830Z,24.70
2022-11-19T11:50:00.488Z,25.02
2022-11-19T11:52:09.891Z,20.42
2022-11-19T11:54:20.456Z,24.25
2022-11-19T11:56:27.834Z,23.50
2022-11-19T11:58:34.207Z,25.27
2022-11-19T12:00:43.614Z,25.88
2022-11-19T12:03:03.555Z,26.13
2022-11-19T12:05:10.430Z,26.23
2022-11-19T12:07:28.013Z,26.60
2022-11-19T12:09:43.695Z,23.65
2022-11-19T12:11:58.579Z,25.80
2022-11-19T12:14:10.944Z,25.73
2022-11-19T12:16:25.406Z,22.50
2022-11-19T12:18:42.200Z,24.58
2022-11-19T12:20:56.878Z,21.60
2022-11-19T12:23:25.406Z,23.67
2022-11-19T12:25:38.103Z,24.95
2022-11-19T12:27:59.893Z,21.88
2022-11-19T12:30:10.744Z,22.40
2022-11-19T12:32:26.318Z,27.27
2022-11-19T12:34:57.715Z,21.65
2022-11-19T12:37:18.331Z,25.92
2022-11-19T12:39:35.664Z,22.23
2022-11-19T12:42:15.484Z,21.83
2022-11-19T12:44:34.355Z,25.77
2022-11-19T12:46:50.616Z,26.48
2022-11-19T12:49:05.963Z,25.05
2022-11-19T12:51:20.928Z,20.23
2022-11-19T12:53:35.809Z,23.90
2022-11-19T12:55:53.430Z,25.83
2022-11-19T12:58:07.538Z,22.27
2022-11-19T13:00:19.358Z,22.15
2022-11-19T13:02:31.451Z,21.83
2022-11-19T13:04:43.455Z,26.98
2022-11-19T13:06:52.785Z,24.20
2022-11-19T13:09:02.270Z,22.48
2022-11-19T13:11:15.319Z,23.20
2022-11-19T13:13:25.462Z,21.13
2022-11-19T13:15:37.986Z,20.65
2022-11-19T13:17:47.286Z,22.50
2022-11-19T13:19:56.728Z,25.50
2022-11-19T13:22:08.013Z,20.20
2022-11-19T13:24:24.548Z,22.60
2022-11-19T13:26:33.035Z,22.98
2022-11-19T13:28:45.268Z,21.13
2022-11-19T13:30:56.313Z,21.63
2022-11-19T13:33:09.580Z,23.23
2022-11-19T13:35:22.462Z,22.33
2022-11-19T13:37:42.829Z,22.45
2022-11-19T13:39:51.767Z,24.98
2022-11-19T13:42:10.482Z,22.33
2022-11-19T13:44:27.739Z,23.52
2022-11-19T13:46:40.495Z,23.45
2022-11-19T13:48:48.778Z,23.33
2022-11-19T13:50:58.433Z,22.77
2022-11-19T13:53:08.757Z,25.05
2022-11-19T13:55:32.086Z,23.45
2022-11-19T13:57:41.099Z,21.55
2022-11-19T13:59:49.223Z,23.58
2022-11-19T14:02:10.987Z,29.30
2022-11-19T14:04:33.029Z,27.58
2022-11-19T14:06:54.125Z,26.30
2022-11-19T14:09:19.169Z,25.08
2022-11-19T14:11:48.647Z,26.13
2022-11-19T14:14:33.988Z,24.77
2022-11-19T14:16:59.996Z,23.45
2022-11-19T14:19:25.787Z,27.35
2022-11-19T14:22:15.002Z,26.10
2022-11-19T14:25:08.470Z,28.08
2022-11-19T14:27:22.069Z,25.23
2022-11-19T14:30:00.776Z,23.58
2022-11-19T14:32:21.615Z,27.15
2022-11-19T14:34:34.583Z,27.55
2022-11-19T14:36:50.059Z,28.73
2022-11-19T14:38:57.568Z,25.63
2022-11-19T14:41:08.318Z,27.00
2022-11-19T14:43:39.554Z,26.20
2022-11-19T14:46:31.472Z,25.45
2022-11-19T14:48:38.523Z,26.88
2022-11-19T14:50:45.987Z,24.92
2022-11-19T14:52:55.328Z,26.98
2022-11-19T14:55:03.213Z,25.25
2022-11-19T14:57:17.548Z,30.38
2022-11-19T14:59:25.380Z,34.45
2022-11-19T15:01:30.218Z,28.10
2022-11-19T15:03:37.745Z,28.55
2022-11-19T15:05:48.339Z,24.63
2022-11-19T15:07:56.528Z,29.10
2022-11-19T15:10:20.441Z,22.77
2022-11-19T15:12:36.201Z,23.13
2022-11-19T15:17:08.580Z,22.20
2022-11-19T15:19:28.964Z,23.80
2022-11-19T15:21:52.842Z,23.65
2022-11-19T15:24:11.134Z,26.33
2022-11-19T15:26:24.367Z,21.45
2022-11-19T15:28:44.381Z,21.45
2022-11-19T15:31:05.729Z,19.00
2022-11-19T15:33:34.155Z,27.27
2022-11-19T15:36:09.630Z,26.05
2022-11-19T15:38:31.144Z,21.08
2022-11-19T15:40:37.294Z,22.85
2022-11-19T15:42:47.195Z,24.58
2022-11-19T15:44:56.667Z,25.60
2022-11-19T15:47:04.665Z,23.90
2022-11-19T15:49:17.056Z,22.13
2022-11-19T15:51:23.072Z,23.02
2022-11-19T15:53:31.218Z,19.95
2022-11-19T15:55:37.392Z,18.23
2022-11-19T15:57:48.550Z,19.25
2022-11-19T16:00:01.018Z,19.38
2022-11-19T16:02:08.019Z,19.10
2022-11-19T16:04:19.054Z,17.50
2022-11-19T16:06:26.472Z,18.85
2022-11-19T16:08:34.930Z,15.25
2022-11-19T16:10:44.390Z,18.33
2022-11-19T16:13:08.864Z,42.38
2022-11-19T16:15:38.368Z,21.88
2022-11-19T16:17:48.806Z,17.25
2022-11-19T16:20:04.843Z,18.02
2022-11-19T16:22:09.682Z,17.75
2022-11-19T16:24:32.346Z,16.48
2022-11-19T16:26:40.136Z,18.25
2022-11-19T16:28:44.939Z,17.85
2022-11-19T16:30:52.287Z,19.23
2022-11-19T16:33:00.770Z,17.38
2022-11-19T16:35:15.369Z,18.23
2022-11-19T16:37:22.755Z,17.67
2022-11-19T16:39:32.333Z,15.27
2022-11-19T16:41:50.253Z,17.85
2022-11-19T16:43:55.612Z,20.05
2022-11-19T16:46:00.927Z,20.65
2022-11-19T16:48:05.773Z,21.15
2022-11-19T16:50:28.614Z,28.55
2022-11-19T16:52:45.143Z,22.65
2022-11-19T16:54:53.709Z,21.77
2022-11-19T16:56:59.025Z,19.25
2022-11-19T17:01:09.980Z,17.25
2022-11-19T17:03:23.264Z,17.40
2022-11-19T17:05:30.972Z,23.65
2022-11-19T17:07:36.076Z,19.83
2022-11-19T17:12:10.133Z,16.25
2022-11-19T17:14:25.122Z,17.20
2022-11-19T17:16:29.937Z,19.48
2022-11-19T17:18:36.467Z,15.93
2022-11-19T17:21:03.564Z,16.25
2022-11-19T17:23:16.577Z,17.55
2022-11-19T17:25:21.408Z,17.23
2022-11-19T17:27:33.119Z,18.92
2022-11-19T17:29:38.198Z,17.13
2022-11-19T17:31:51.854Z,14.70
2022-11-19T17:33:58.510Z,19.27
2022-11-19T17:36:03.621Z,16.45
2022-11-19T17:38:14.445Z,17.45
2022-11-19T17:40:19.331Z,16.23
2022-11-19T17:42:36.959Z,16.55
2022-11-19T17:44:44.613Z,16.80
2022-11-19T17:46:49.386Z,16.30
2022-11-19T17:48:55.464Z,17.70
2022-11-19T17:51:00.463Z,17.20
2022-11-19T17:53:05.275Z,20.13
2022-11-19T17:55:18.961Z,20.45
2022-11-19T17:57:23.893Z,15.27
2022-11-19T17:59:29.646Z,18.58
2022-11-19T18:01:37.611Z,16.20
2022-11-19T18:03:44.963Z,14.50
2022-11-19T18:05:51.704Z,15.77
2022-11-19T18:07:56.600Z,14.88
2022-11-19T18:10:01.380Z,19.27
2022-11-19T18:12:06.838Z,19.90
2022-11-19T18:14:12.992Z,17.75
2022-11-19T18:16:19.712Z,19.02
2022-11-19T18:18:27.207Z,21.45
2022-11-19T18:20:32.024Z,18.70
2022-11-19T18:22:36.868Z,25.30
2022-11-19T18:24:41.902Z,22.08
2022-11-19T18:26:46.808Z,18.73
2022-11-19T18:28:51.612Z,18.42
2022-11-19T18:30:56.600Z,17.73
2022-11-19T18:33:02.427Z,23.80
2022-11-19T18:35:16.727Z,32.50
2022-11-19T18:37:21.530Z,26.80
2022-11-19T18:39:26.350Z,20.40
2022-11-19T18:41:32.152Z,19.20
2022-11-19T18:43:49.380Z,20.85
2022-11-19T18:45:54.157Z,19.25
2022-11-19T18:47:59.067Z,16.92
2022-11-19T18:50:03.884Z,17.73
2022-11-19T18:52:15.128Z,16.45
2022-11-19T18:54:20.206Z,22.27
2022-11-19T18:58:29.935Z,16.60
2022-11-19T19:00:34.712Z,20.50
2022-11-19T19:02:39.601Z,17.50
2022-11-19T19:04:49.688Z,16.63
2022-11-19T19:06:56.111Z,18.15
2022-11-19T19:11:22.464Z,18.52
2022-11-19T19:13:27.349Z,18.63
2022-11-19T19:15:32.125Z,17.55
2022-11-19T19:17:37.013Z,23.52
2022-11-19T19:19:41.910Z,19.90
2022-11-19T19:21:46.755Z,17.90
2022-11-19T19:23:52.102Z,17.25
2022-11-19T19:26:00.630Z,17.40
2022-11-19T19:28:05.411Z,19.33
2022-11-19T19:30:12.161Z,20.77
2022-11-19T19:32:19.764Z,17.58
2022-11-19T19:34:24.575Z,20.30
2022-11-19T19:36:30.412Z,18.75
2022-11-19T19:38:35.244Z,19.40
2022-11-19T19:40:40.010Z,18.88
2022-11-19T19:42:47.595Z,19.23
2022-11-19T19:44:52.463Z,19.08
2022-11-19T19:46:57.272Z,19.65
2022-11-19T19:49:02.610Z,17.42
2022-11-19T19:51:07.611Z,20.10
2022-11-19T19:53:12.743Z,19.20
2022-11-19T19:57:22.434Z,20.17
2022-11-19T19:59:29.800Z,20.33
2022-11-19T20:01:36.344Z,23.05
2022-11-19T20:03:41.923Z,20.40
2022-11-19T20:05:51.745Z,19.98
2022-11-19T20:07:56.567Z,23.55
2022-11-19T20:10:01.430Z,17.90
2022-11-19T20:12:06.450Z,18.90
2022-11-19T20:14:12.601Z,21.27
2022-11-19T20:16:22.461Z,21.67
2022-11-19T20:18:28.218Z,21.05
2022-11-19T20:20:32.992Z,25.65
2022-11-19T20:22:37.799Z,29.05
2022-11-19T20:24:45.459Z,24.50
2022-11-19T20:26:50.340Z,22.98
2022-11-19T20:28:58.026Z,22.83
2022-11-19T20:31:06.631Z,23.90
2022-11-19T20:33:14.053Z,22.45
2022-11-19T20:35:19.268Z,21.70
2022-11-19T20:39:28.635Z,22.40
2022-11-19T20:41:46.198Z,22.60
2022-11-19T20:44:03.541Z,22.10
2022-11-19T20:46:16.252Z,29.08
2022-11-19T20:48:23.692Z,27.83
2022-11-19T20:50:28.555Z,27.38
2022-11-19T20:52:33.348Z,25.20
2022-11-19T20:54:38.281Z,23.80
2022-11-19T20:56:44.104Z,20.90
2022-11-19T20:58:48.925Z,22.83
2022-11-19T21:00:53.805Z,24.67
2022-11-19T21:02:58.595Z,23.60
2022-11-19T21:05:06.138Z,22.65
2022-11-19T21:07:11.043Z,22.73
2022-11-19T21:09:16.046Z,21.17
2022-11-19T21:11:20.968Z,23.13
2022-11-19T21:13:25.780Z,22.48
2022-11-19T21:15:31.267Z,26.70
2022-11-19T21:17:36.060Z,33.45
2022-11-19T21:19:40.854Z,36.53
2022-11-19T21:21:50.943Z,27.42
2022-11-19T21:23:56.689Z,31.10
2022-11-19T21:26:04.854Z,26.45
2022-11-19T21:28:09.784Z,28.48
2022-11-19T21:30:15.584Z,25.95
2022-11-19T21:32:20.379Z,26.25
2022-11-19T21:34:25.205Z,25.95
2022-11-19T21:36:30.202Z,24.02
2022-11-19T21:38:37.914Z,23.77
2022-11-19T21:40:43.181Z,27.13
2022-11-19T21:44:52.546Z,27.90
2022-11-19T21:46:57.414Z,27.77
2022-11-19T21:49:02.475Z,27.38
2022-11-19T21:51:09.225Z,27.20
2022-11-19T21:53:15.044Z,24.77
2022-11-19T21:55:23.147Z,24.73
2022-11-19T21:57:28.004Z,23.88
2022-11-19T21:59:32.869Z,23.90
2022-11-19T22:01:37.786Z,26.63
2022-11-19T22:03:42.772Z,22.80
2022-11-19T22:07:52.700Z,25.95
2022-11-19T22:12:04.638Z,24.25
2022-11-19T22:14:11.772Z,23.25
2022-11-19T22:16:19.677Z,24.88
2022-11-19T22:18:24.500Z,26.65
2022-11-19T22:20:29.272Z,25.02
2022-11-19T22:22:34.128Z,22.42
2022-11-19T22:24:38.972Z,25.70
2022-11-19T22:26:43.907Z,23.10
2022-11-19T22:28:51.355Z,23.20
2022-11-19T22:30:56.660Z,23.83
2022-11-19T22:35:06.487Z,25.85
2022-11-19T22:37:11.648Z,21.42
2022-11-19T22:41:25.063Z,28.15
2022-11-19T22:43:33.135Z,24.02
2022-11-19T22:45:40.512Z,21.30
2022-11-19T22:47:48.166Z,23.20
2022-11-19T22:49:52.944Z,25.45
2022-11-19T22:51:57.849Z,23.73
2022-11-19T22:54:02.653Z,23.10
2022-11-19T22:56:09.456Z,22.48
2022-11-19T22:58:14.242Z,24.05
2022-11-19T23:00:43.644Z,25.08
2022-11-19T23:02:48.422Z,22.58
2022-11-19T23:04:53.265Z,23.00
2022-11-19T23:06:58.403Z,26.02
2022-11-19T23:09:03.280Z,26.15
2022-11-19T23:11:09.654Z,23.40
2022-11-19T23:13:28.924Z,25.73
2022-11-19T23:15:33.687Z,25.45
2022-11-19T23:17:44.929Z,21.73
2022-11-19T23:19:49.723Z,21.73
2022-11-19T23:21:54.609Z,24.17
2022-11-19T23:24:01.180Z,23.83
2022-11-19T23:26:07.446Z,23.45
2022-11-19T23:28:15.279Z,21.50
2022-11-19T23:30:20.319Z,20.63
2022-11-19T23:34:32.352Z,23.92
2022-11-19T23:36:38.656Z,23.58
2022-11-19T23:38:43.568Z,26.85
2022-11-19T23:40:48.411Z,24.38
2022-11-19T23:42:53.220Z,22.45
2022-11-19T23:44:58.147Z,22.73
2022-11-19T23:47:03.508Z,23.33
2022-11-19T23:49:08.761Z,27.33
2022-11-19T23:51:17.853Z,25.20
2022-11-19T23:53:22.610Z,23.25
2022-11-19T23:55:27.371Z,18.92
2022-11-19T23:57:32.242Z,21.08
2022-11-19T23:59:38.350Z,23.95
